sensor_id;sensor_type;location;lat;lon;timestamp;temperature;humidity
20200;DHT22;36284;37.236;-121.934;2023-05-01T00:02:09;18.90;99.90
20200;DHT22;36284;37.236;-121.934;2023-05-01T00:04:36;19.10;99.90
20200;DHT22;36284;37.236;-121.934;2023-05-01T00:07:03;18.70;99.90
20200;DHT22;36284;37.236;-121.934;2023-05-01T00:09:30;19.10;99.90
20200;DHT22;36284;37.236;-121.934;2023-05-01T00:11:57;19.40;99.90
20200;DHT22;36284;37.236;-121.934;2023-05-01T00:14:24;19.00;99.90
20200;DHT22;36284;37.236;-121.934;2023-05-01T00:16:52;19.10;99.90
20200;DHT22;36284;37.236;-121.934;2023-05-01T00:19:19;19.20;99.90
20200;DHT22;36284;37.236;-121.934;2023-05-01T00:21:46;18.70;99.90
20200;DHT22;36284;37.236;-121.934;2023-05-01T00:24:14;18.70;99.90
20200;DHT22;36284;37.236;-121.934;2023-05-01T00:26:42;18.40;99.90
20200;DHT22;36284;37.236;-121.934;2023-05-01T00:31:36;18.20;99.90
20200;DHT22;36284;37.236;-121.934;2023-05-01T00:34:03;18.40;99.90
20200;DHT22;36284;37.236;-121.934;2023-05-01T00:36:30;18.50;99.90
20200;DHT22;36284;37.236;-121.934;2023-05-01T00:38:58;18.30;99.90
20200;DHT22;36284;37.236;-121.934;2023-05-01T00:41:25;18.50;99.90
20200;DHT22;36284;37.236;-121.934;2023-05-01T00:43:52;17.90;99.90
20200;DHT22;36284;37.236;-121.934;2023-05-01T00:46:19;17.90;99.90
20200;DHT22;36284;37.236;-121.934;2023-05-01T00:48:47;17.90;99.90
20200;DHT22;36284;37.236;-121.934;2023-05-01T00:51:14;17.80;99.90
20200;DHT22;36284;37.236;-121.934;2023-05-01T00:53:42;17.50;99.90
20200;DHT22;36284;37.236;-121.934;2023-05-01T00:56:10;16.80;99.90
20200;DHT22;36284;37.236;-121.934;2023-05-01T00:58:38;16.70;99.90
20200;DHT22;36284;37.236;-121.934;2023-05-01T01:01:05;16.90;99.90
20200;DHT22;36284;37.236;-121.934;2023-05-01T01:03:35;16.60;99.90
20200;DHT22;36284;37.236;-121.934;2023-05-01T01:06:10;16.60;99.90
20200;DHT22;36284;37.236;-121.934;2023-05-01T01:14:27;16.00;99.90
20200;DHT22;36284;37.236;-121.934;2023-05-01T01:32:08;15.40;99.90
20200;DHT22;36284;37.236;-121.934;2023-05-01T01:34:54;15.10;99.90
20200;DHT22;36284;37.236;-121.934;2023-05-01T01:37:42;14.90;99.90
20200;DHT22;36284;37.236;-121.934;2023-05-01T01:40:15;14.70;99.90
20200;DHT22;36284;37.236;-121.934;2023-05-01T01:43:01;14.70;99.90
20200;DHT22;36284;37.236;-121.934;2023-05-01T01:45:52;14.80;99.90
20200;DHT22;36284;37.236;-121.934;2023-05-01T01:48:28;14.90;99.90
20200;DHT22;36284;37.236;-121.934;2023-05-01T01:50:58;14.70;99.90
20200;DHT22;36284;37.236;-121.934;2023-05-01T01:53:27;14.80;99.90
20200;DHT22;36284;37.236;-121.934;2023-05-01T01:55:57;14.90;99.90
20200;DHT22;36284;37.236;-121.934;2023-05-01T01:58:26;14.80;99.90
20200;DHT22;36284;37.236;-121.934;2023-05-01T02:00:55;14.60;99.90
20200;DHT22;36284;37.236;-121.934;2023-05-01T02:03:23;14.50;99.90
20200;DHT22;36284;37.236;-121.934;2023-05-01T02:05:54;14.60;99.90
20200;DHT22;36284;37.236;-121.934;2023-05-01T02:08:23;14.60;99.90
20200;DHT22;36284;37.236;-121.934;2023-05-01T02:10:51;14.50;99.90
20200;DHT22;36284;37.236;-121.934;2023-05-01T02:13:28;14.50;99.90
20200;DHT22;36284;37.236;-121.934;2023-05-01T02:15:58;14.40;99.90
20200;DHT22;36284;37.236;-121.934;2023-05-01T02:18:27;14.40;99.90
20200;DHT22;36284;37.236;-121.934;2023-05-01T02:20:56;14.40;99.90
20200;DHT22;36284;37.236;-121.934;2023-05-01T02:23:28;14.30;99.90
20200;DHT22;36284;37.236;-121.934;2023-05-01T02:25:59;14.10;99.90
20200;DHT22;36284;37.236;-121.934;2023-05-01T02:28:29;14.10;99.90
20200;DHT22;36284;37.236;-121.934;2023-05-01T02:30:57;14.00;99.90
20200;DHT22;36284;37.236;-121.934;2023-05-01T02:33:24;13.90;99.90
20200;DHT22;36284;37.236;-121.934;2023-05-01T02:35:51;13.70;99.90
20200;DHT22;36284;37.236;-121.934;2023-05-01T02:38:18;13.70;99.90
20200;DHT22;36284;37.236;-121.934;2023-05-01T02:40:51;13.60;99.90
20200;DHT22;36284;37.236;-121.934;2023-05-01T02:43:20;13.60;99.90
20200;DHT22;36284;37.236;-121.934;2023-05-01T02:45:50;13.50;99.90
20200;DHT22;36284;37.236;-121.934;2023-05-01T02:48:20;13.30;99.90
20200;DHT22;36284;37.236;-121.934;2023-05-01T02:50:50;13.20;99.90
20200;DHT22;36284;37.236;-121.934;2023-05-01T02:53:17;13.00;99.90
20200;DHT22;36284;37.236;-121.934;2023-05-01T02:55:44;13.10;99.90
20200;DHT22;36284;37.236;-121.934;2023-05-01T02:58:18;13.00;99.90
20200;DHT22;36284;37.236;-121.934;2023-05-01T03:00:47;12.90;99.90
20200;DHT22;36284;37.236;-121.934;2023-05-01T03:03:14;12.80;99.90
20200;DHT22;36284;37.236;-121.934;2023-05-01T03:05:42;12.70;99.90
20200;DHT22;36284;37.236;-121.934;2023-05-01T03:08:09;12.70;99.90
20200;DHT22;36284;37.236;-121.934;2023-05-01T03:10:39;12.60;99.90
20200;DHT22;36284;37.236;-121.934;2023-05-01T03:13:08;12.40;99.90
20200;DHT22;36284;37.236;-121.934;2023-05-01T03:15:38;12.40;99.90
20200;DHT22;36284;37.236;-121.934;2023-05-01T03:18:05;12.30;99.90
20200;DHT22;36284;37.236;-121.934;2023-05-01T03:20:32;12.30;99.90
20200;DHT22;36284;37.236;-121.934;2023-05-01T03:22:59;12.30;99.90
20200;DHT22;36284;37.236;-121.934;2023-05-01T03:25:26;12.20;99.90
20200;DHT22;36284;37.236;-121.934;2023-05-01T03:27:53;12.20;99.90
20200;DHT22;36284;37.236;-121.934;2023-05-01T03:30:20;11.90;99.90
20200;DHT22;36284;37.236;-121.934;2023-05-01T03:32:47;11.70;99.90
20200;DHT22;36284;37.236;-121.934;2023-05-01T03:35:14;11.60;99.90
20200;DHT22;36284;37.236;-121.934;2023-05-01T03:37:41;11.50;99.90
20200;DHT22;36284;37.236;-121.934;2023-05-01T03:40:08;11.50;99.90
20200;DHT22;36284;37.236;-121.934;2023-05-01T03:42:36;11.40;99.90
20200;DHT22;36284;37.236;-121.934;2023-05-01T03:45:03;11.20;99.90
20200;DHT22;36284;37.236;-121.934;2023-05-01T03:49:57;10.90;99.90
20200;DHT22;36284;37.236;-121.934;2023-05-01T03:52:24;10.80;99.90
20200;DHT22;36284;37.236;-121.934;2023-05-01T03:54:51;10.90;99.90
20200;DHT22;36284;37.236;-121.934;2023-05-01T03:57:19;10.70;99.90
20200;DHT22;36284;37.236;-121.934;2023-05-01T03:59:49;10.60;99.90
20200;DHT22;36284;37.236;-121.934;2023-05-01T04:02:16;10.60;99.90
20200;DHT22;36284;37.236;-121.934;2023-05-01T04:07:10;10.60;99.90
20200;DHT22;36284;37.236;-121.934;2023-05-01T04:09:37;10.50;99.90
20200;DHT22;36284;37.236;-121.934;2023-05-01T04:12:04;10.30;99.90
20200;DHT22;36284;37.236;-121.934;2023-05-01T04:14:31;10.30;99.90
20200;DHT22;36284;37.236;-121.934;2023-05-01T04:16:58;10.30;99.90
20200;DHT22;36284;37.236;-121.934;2023-05-01T04:19:25;10.00;99.90
20200;DHT22;36284;37.236;-121.934;2023-05-01T04:21:52;10.00;99.90
20200;DHT22;36284;37.236;-121.934;2023-05-01T04:24:20;10.10;99.90
20200;DHT22;36284;37.236;-121.934;2023-05-01T04:26:47;10.00;99.90
20200;DHT22;36284;37.236;-121.934;2023-05-01T04:29:15;9.90;99.90
20200;DHT22;36284;37.236;-121.934;2023-05-01T04:31:42;10.00;99.90
20200;DHT22;36284;37.236;-121.934;2023-05-01T04:34:09;10.00;99.90
20200;DHT22;36284;37.236;-121.934;2023-05-01T04:36:36;9.90;99.90
20200;DHT22;36284;37.236;-121.934;2023-05-01T04:39:03;9.80;99.90
20200;DHT22;36284;37.236;-121.934;2023-05-01T04:41:30;9.80;99.90
20200;DHT22;36284;37.236;-121.934;2023-05-01T04:43:57;9.70;99.90
20200;DHT22;36284;37.236;-121.934;2023-05-01T04:46:24;9.60;99.90
20200;DHT22;36284;37.236;-121.934;2023-05-01T04:48:51;9.70;99.90
20200;DHT22;36284;37.236;-121.934;2023-05-01T04:51:18;9.70;99.90
20200;DHT22;36284;37.236;-121.934;2023-05-01T04:53:46;9.60;99.90
20200;DHT22;36284;37.236;-121.934;2023-05-01T04:56:12;9.60;99.90
20200;DHT22;36284;37.236;-121.934;2023-05-01T04:58:39;9.50;99.90
20200;DHT22;36284;37.236;-121.934;2023-05-01T05:01:07;9.50;99.90
20200;DHT22;36284;37.236;-121.934;2023-05-01T05:03:34;9.50;99.90
20200;DHT22;36284;37.236;-121.934;2023-05-01T05:06:01;9.50;99.90
20200;DHT22;36284;37.236;-121.934;2023-05-01T05:08:28;9.70;99.90
20200;DHT22;36284;37.236;-121.934;2023-05-01T05:11:00;9.90;99.90
20200;DHT22;36284;37.236;-121.934;2023-05-01T05:13:27;10.10;99.90
20200;DHT22;36284;37.236;-121.934;2023-05-01T05:15:54;10.40;99.90
20200;DHT22;36284;37.236;-121.934;2023-05-01T05:18:21;10.60;99.90
20200;DHT22;36284;37.236;-121.934;2023-05-01T05:20:49;10.80;99.90
20200;DHT22;36284;37.236;-121.934;2023-05-01T05:23:16;10.90;99.90
20200;DHT22;36284;37.236;-121.934;2023-05-01T05:25:43;11.00;99.90
20200;DHT22;36284;37.236;-121.934;2023-05-01T05:28:10;11.30;99.90
20200;DHT22;36284;37.236;-121.934;2023-05-01T05:30:36;11.30;99.90
20200;DHT22;36284;37.236;-121.934;2023-05-01T05:33:05;11.40;99.90
20200;DHT22;36284;37.236;-121.934;2023-05-01T05:35:34;11.50;99.90
20200;DHT22;36284;37.236;-121.934;2023-05-01T05:38:01;11.60;99.90
20200;DHT22;36284;37.236;-121.934;2023-05-01T05:40:28;11.60;99.90
20200;DHT22;36284;37.236;-121.934;2023-05-01T05:42:55;11.70;99.90
20200;DHT22;36284;37.236;-121.934;2023-05-01T05:45:22;11.80;99.90
20200;DHT22;36284;37.236;-121.934;2023-05-01T05:47:49;11.90;99.90
20200;DHT22;36284;37.236;-121.934;2023-05-01T05:50:16;11.90;99.90
20200;DHT22;36284;37.236;-121.934;2023-05-01T05:52:43;11.80;99.90
20200;DHT22;36284;37.236;-121.934;2023-05-01T05:55:10;11.90;99.90
20200;DHT22;36284;37.236;-121.934;2023-05-01T05:57:37;11.80;99.90
20200;DHT22;36284;37.236;-121.934;2023-05-01T06:00:05;11.90;99.90
20200;DHT22;36284;37.236;-121.934;2023-05-01T06:02:32;11.90;99.90
20200;DHT22;36284;37.236;-121.934;2023-05-01T06:04:59;11.90;99.90
20200;DHT22;36284;37.236;-121.934;2023-05-01T06:07:26;12.00;99.90
20200;DHT22;36284;37.236;-121.934;2023-05-01T06:09:54;11.90;99.90
20200;DHT22;36284;37.236;-121.934;2023-05-01T06:12:26;12.00;99.90
20200;DHT22;36284;37.236;-121.934;2023-05-01T06:14:55;12.00;99.90
20200;DHT22;36284;37.236;-121.934;2023-05-01T06:17:23;11.90;99.90
20200;DHT22;36284;37.236;-121.934;2023-05-01T06:19:50;11.90;99.90
20200;DHT22;36284;37.236;-121.934;2023-05-01T06:22:19;12.00;99.90
20200;DHT22;36284;37.236;-121.934;2023-05-01T06:24:46;11.90;99.90
20200;DHT22;36284;37.236;-121.934;2023-05-01T06:27:13;11.90;99.90
20200;DHT22;36284;37.236;-121.934;2023-05-01T06:29:40;11.90;99.90
20200;DHT22;36284;37.236;-121.934;2023-05-01T06:32:07;12.00;99.90
20200;DHT22;36284;37.236;-121.934;2023-05-01T06:34:34;11.90;99.90
20200;DHT22;36284;37.236;-121.934;2023-05-01T06:37:01;11.80;99.90
20200;DHT22;36284;37.236;-121.934;2023-05-01T06:39:30;11.90;99.90
20200;DHT22;36284;37.236;-121.934;2023-05-01T06:41:57;11.80;99.90
20200;DHT22;36284;37.236;-121.934;2023-05-01T06:44:24;11.80;99.90
20200;DHT22;36284;37.236;-121.934;2023-05-01T06:46:51;11.80;99.90
20200;DHT22;36284;37.236;-121.934;2023-05-01T06:49:18;11.80;99.90
20200;DHT22;36284;37.236;-121.934;2023-05-01T06:51:45;11.80;99.90
20200;DHT22;36284;37.236;-121.934;2023-05-01T06:54:12;11.80;99.90
20200;DHT22;36284;37.236;-121.934;2023-05-01T06:56:39;11.90;99.90
20200;DHT22;36284;37.236;-121.934;2023-05-01T06:59:06;11.90;99.90
20200;DHT22;36284;37.236;-121.934;2023-05-01T07:01:33;11.80;99.90
20200;DHT22;36284;37.236;-121.934;2023-05-01T07:04:00;11.80;99.90
20200;DHT22;36284;37.236;-121.934;2023-05-01T07:06:27;11.80;99.90
20200;DHT22;36284;37.236;-121.934;2023-05-01T07:08:54;11.80;99.90
20200;DHT22;36284;37.236;-121.934;2023-05-01T07:11:21;11.90;99.90
20200;DHT22;36284;37.236;-121.934;2023-05-01T07:13:48;11.90;99.90
20200;DHT22;36284;37.236;-121.934;2023-05-01T07:16:15;11.80;99.90
20200;DHT22;36284;37.236;-121.934;2023-05-01T07:18:42;11.80;99.90
20200;DHT22;36284;37.236;-121.934;2023-05-01T07:21:09;11.80;99.90
20200;DHT22;36284;37.236;-121.934;2023-05-01T07:23:39;11.80;99.90
20200;DHT22;36284;37.236;-121.934;2023-05-01T07:26:05;11.80;99.90
20200;DHT22;36284;37.236;-121.934;2023-05-01T07:28:33;11.90;99.90
20200;DHT22;36284;37.236;-121.934;2023-05-01T07:31:00;11.90;99.90
20200;DHT22;36284;37.236;-121.934;2023-05-01T07:33:27;11.90;99.90
20200;DHT22;36284;37.236;-121.934;2023-05-01T07:35:55;11.80;99.90
20200;DHT22;36284;37.236;-121.934;2023-05-01T07:38:22;11.80;99.90
20200;DHT22;36284;37.236;-121.934;2023-05-01T07:40:52;11.80;99.90
20200;DHT22;36284;37.236;-121.934;2023-05-01T07:43:19;11.80;99.90
20200;DHT22;36284;37.236;-121.934;2023-05-01T07:45:57;11.80;99.90
20200;DHT22;36284;37.236;-121.934;2023-05-01T07:48:25;11.70;99.90
20200;DHT22;36284;37.236;-121.934;2023-05-01T07:50:52;11.70;99.90
20200;DHT22;36284;37.236;-121.934;2023-05-01T07:53:20;11.80;99.90
20200;DHT22;36284;37.236;-121.934;2023-05-01T07:55:49;11.80;99.90
20200;DHT22;36284;37.236;-121.934;2023-05-01T07:58:16;11.80;99.90
20200;DHT22;36284;37.236;-121.934;2023-05-01T08:00:44;11.80;99.90
20200;DHT22;36284;37.236;-121.934;2023-05-01T08:03:11;11.80;99.90
20200;DHT22;36284;37.236;-121.934;2023-05-01T08:05:39;11.70;99.90
20200;DHT22;36284;37.236;-121.934;2023-05-01T08:08:07;11.80;99.90
20200;DHT22;36284;37.236;-121.934;2023-05-01T08:10:34;11.80;99.90
20200;DHT22;36284;37.236;-121.934;2023-05-01T08:13:01;11.80;99.90
20200;DHT22;36284;37.236;-121.934;2023-05-01T08:15:29;11.90;99.90
20200;DHT22;36284;37.236;-121.934;2023-05-01T08:17:56;11.80;99.90
20200;DHT22;36284;37.236;-121.934;2023-05-01T08:20:22;11.80;99.90
20200;DHT22;36284;37.236;-121.934;2023-05-01T08:22:49;11.90;99.90
20200;DHT22;36284;37.236;-121.934;2023-05-01T08:25:16;11.80;99.90
20200;DHT22;36284;37.236;-121.934;2023-05-01T08:27:43;11.70;99.90
20200;DHT22;36284;37.236;-121.934;2023-05-01T08:30:11;11.70;99.90
20200;DHT22;36284;37.236;-121.934;2023-05-01T08:32:38;11.70;99.90
20200;DHT22;36284;37.236;-121.934;2023-05-01T08:35:05;11.70;99.90
20200;DHT22;36284;37.236;-121.934;2023-05-01T08:37:32;11.70;99.90
20200;DHT22;36284;37.236;-121.934;2023-05-01T08:39:59;11.70;99.90
20200;DHT22;36284;37.236;-121.934;2023-05-01T08:42:26;11.70;99.90
20200;DHT22;36284;37.236;-121.934;2023-05-01T08:44:54;11.70;99.90
20200;DHT22;36284;37.236;-121.934;2023-05-01T08:47:24;11.70;99.90
20200;DHT22;36284;37.236;-121.934;2023-05-01T08:49:52;11.70;99.90
20200;DHT22;36284;37.236;-121.934;2023-05-01T08:52:21;11.80;99.90
20200;DHT22;36284;37.236;-121.934;2023-05-01T08:54:49;11.80;99.90
20200;DHT22;36284;37.236;-121.934;2023-05-01T08:57:20;11.70;99.90
20200;DHT22;36284;37.236;-121.934;2023-05-01T08:59:47;11.70;99.90
20200;DHT22;36284;37.236;-121.934;2023-05-01T09:02:16;11.70;99.90
20200;DHT22;36284;37.236;-121.934;2023-05-01T09:04:44;11.70;99.90
20200;DHT22;36284;37.236;-121.934;2023-05-01T09:07:12;11.70;99.90
20200;DHT22;36284;37.236;-121.934;2023-05-01T09:09:39;11.80;99.90
20200;DHT22;36284;37.236;-121.934;2023-05-01T09:12:12;11.70;99.90
20200;DHT22;36284;37.236;-121.934;2023-05-01T09:14:41;11.70;99.90
20200;DHT22;36284;37.236;-121.934;2023-05-01T09:17:09;11.70;99.90
20200;DHT22;36284;37.236;-121.934;2023-05-01T09:19:36;11.60;99.90
20200;DHT22;36284;37.236;-121.934;2023-05-01T09:22:02;11.60;99.90
20200;DHT22;36284;37.236;-121.934;2023-05-01T09:24:29;11.60;99.90
20200;DHT22;36284;37.236;-121.934;2023-05-01T09:26:56;11.60;99.90
20200;DHT22;36284;37.236;-121.934;2023-05-01T09:29:44;11.60;99.90
20200;DHT22;36284;37.236;-121.934;2023-05-01T09:32:30;11.60;99.90
20200;DHT22;36284;37.236;-121.934;2023-05-01T09:35:11;11.60;99.90
20200;DHT22;36284;37.236;-121.934;2023-05-01T09:37:39;11.60;99.90
20200;DHT22;36284;37.236;-121.934;2023-05-01T09:40:11;11.60;99.90
20200;DHT22;36284;37.236;-121.934;2023-05-01T09:42:49;11.70;99.90
20200;DHT22;36284;37.236;-121.934;2023-05-01T09:45:20;11.70;99.90
20200;DHT22;36284;37.236;-121.934;2023-05-01T09:47:48;11.70;99.90
20200;DHT22;36284;37.236;-121.934;2023-05-01T09:50:29;11.70;99.90
20200;DHT22;36284;37.236;-121.934;2023-05-01T09:52:57;11.70;99.90
20200;DHT22;36284;37.236;-121.934;2023-05-01T09:55:24;11.70;99.90
20200;DHT22;36284;37.236;-121.934;2023-05-01T09:57:52;11.70;99.90
20200;DHT22;36284;37.236;-121.934;2023-05-01T10:00:19;11.70;99.90
20200;DHT22;36284;37.236;-121.934;2023-05-01T10:02:48;11.70;99.90
20200;DHT22;36284;37.236;-121.934;2023-05-01T10:05:15;11.70;99.90
20200;DHT22;36284;37.236;-121.934;2023-05-01T10:07:56;11.60;99.90
20200;DHT22;36284;37.236;-121.934;2023-05-01T10:10:23;11.50;99.90
20200;DHT22;36284;37.236;-121.934;2023-05-01T10:12:50;11.50;99.90
20200;DHT22;36284;37.236;-121.934;2023-05-01T10:15:17;11.50;99.90
20200;DHT22;36284;37.236;-121.934;2023-05-01T10:17:46;11.50;99.90
20200;DHT22;36284;37.236;-121.934;2023-05-01T10:20:14;11.50;99.90
20200;DHT22;36284;37.236;-121.934;2023-05-01T10:22:41;11.50;99.90
20200;DHT22;36284;37.236;-121.934;2023-05-01T10:25:11;11.60;99.90
20200;DHT22;36284;37.236;-121.934;2023-05-01T10:27:39;11.60;99.90
20200;DHT22;36284;37.236;-121.934;2023-05-01T10:30:08;11.50;99.90
20200;DHT22;36284;37.236;-121.934;2023-05-01T10:32:36;11.50;99.90
20200;DHT22;36284;37.236;-121.934;2023-05-01T10:35:25;11.50;99.90
20200;DHT22;36284;37.236;-121.934;2023-05-01T10:45:52;11.60;99.90
20200;DHT22;36284;37.236;-121.934;2023-05-01T10:51:12;11.60;99.90
20200;DHT22;36284;37.236;-121.934;2023-05-01T10:53:41;11.60;99.90
20200;DHT22;36284;37.236;-121.934;2023-05-01T10:58:59;11.50;99.90
20200;DHT22;36284;37.236;-121.934;2023-05-01T11:01:42;11.60;99.90
20200;DHT22;36284;37.236;-121.934;2023-05-01T11:09:47;11.60;99.90
20200;DHT22;36284;37.236;-121.934;2023-05-01T11:17:51;11.40;99.90
20200;DHT22;36284;37.236;-121.934;2023-05-01T11:22:52;11.40;99.90
20200;DHT22;36284;37.236;-121.934;2023-05-01T11:25:28;11.50;99.90
20200;DHT22;36284;37.236;-121.934;2023-05-01T11:28:01;11.40;99.90
20200;DHT22;36284;37.236;-121.934;2023-05-01T11:30:38;11.50;99.90
20200;DHT22;36284;37.236;-121.934;2023-05-01T11:33:06;11.50;99.90
20200;DHT22;36284;37.236;-121.934;2023-05-01T11:35:33;11.50;99.90
20200;DHT22;36284;37.236;-121.934;2023-05-01T11:38:00;11.60;99.90
20200;DHT22;36284;37.236;-121.934;2023-05-01T11:40:33;11.50;99.90
20200;DHT22;36284;37.236;-121.934;2023-05-01T11:43:05;11.50;99.90
20200;DHT22;36284;37.236;-121.934;2023-05-01T11:45:33;11.50;99.90
20200;DHT22;36284;37.236;-121.934;2023-05-01T11:48:00;11.50;99.90
20200;DHT22;36284;37.236;-121.934;2023-05-01T11:50:35;11.40;99.90
20200;DHT22;36284;37.236;-121.934;2023-05-01T11:53:03;11.40;99.90
20200;DHT22;36284;37.236;-121.934;2023-05-01T11:55:31;11.40;99.90
20200;DHT22;36284;37.236;-121.934;2023-05-01T11:57:59;11.40;99.90
20200;DHT22;36284;37.236;-121.934;2023-05-01T12:00:28;11.50;99.90
20200;DHT22;36284;37.236;-121.934;2023-05-01T12:05:24;11.50;99.90
20200;DHT22;36284;37.236;-121.934;2023-05-01T12:08:01;11.50;99.90
20200;DHT22;36284;37.236;-121.934;2023-05-01T12:10:33;11.50;99.90
20200;DHT22;36284;37.236;-121.934;2023-05-01T12:13:05;11.60;99.90
20200;DHT22;36284;37.236;-121.934;2023-05-01T12:15:35;11.60;99.90
20200;DHT22;36284;37.236;-121.934;2023-05-01T12:18:03;11.50;99.90
20200;DHT22;36284;37.236;-121.934;2023-05-01T12:20:35;11.60;99.90
20200;DHT22;36284;37.236;-121.934;2023-05-01T12:23:06;11.60;99.90
20200;DHT22;36284;37.236;-121.934;2023-05-01T12:25:34;11.60;99.90
20200;DHT22;36284;37.236;-121.934;2023-05-01T12:28:14;11.50;99.90
20200;DHT22;36284;37.236;-121.934;2023-05-01T12:30:44;11.50;99.90
20200;DHT22;36284;37.236;-121.934;2023-05-01T12:33:17;11.50;99.90
20200;DHT22;36284;37.236;-121.934;2023-05-01T12:35:47;11.50;99.90
20200;DHT22;36284;37.236;-121.934;2023-05-01T12:38:16;11.50;99.90
20200;DHT22;36284;37.236;-121.934;2023-05-01T12:43:29;11.30;99.90
20200;DHT22;36284;37.236;-121.934;2023-05-01T12:45:57;11.30;99.90
20200;DHT22;36284;37.236;-121.934;2023-05-01T12:48:24;11.30;99.90
20200;DHT22;36284;37.236;-121.934;2023-05-01T12:50:52;11.30;99.90
20200;DHT22;36284;37.236;-121.934;2023-05-01T12:53:23;11.30;99.90
20200;DHT22;36284;37.236;-121.934;2023-05-01T12:55:55;11.30;99.90
20200;DHT22;36284;37.236;-121.934;2023-05-01T12:58:24;11.30;99.90
20200;DHT22;36284;37.236;-121.934;2023-05-01T13:01:00;11.30;99.90
20200;DHT22;36284;37.236;-121.934;2023-05-01T13:03:28;11.30;99.90
20200;DHT22;36284;37.236;-121.934;2023-05-01T13:05:57;11.20;99.90
20200;DHT22;36284;37.236;-121.934;2023-05-01T13:10:54;11.20;99.90
20200;DHT22;36284;37.236;-121.934;2023-05-01T13:13:33;11.30;99.90
20200;DHT22;36284;37.236;-121.934;2023-05-01T13:16:14;11.20;99.90
20200;DHT22;36284;37.236;-121.934;2023-05-01T13:18:50;11.20;99.90
20200;DHT22;36284;37.236;-121.934;2023-05-01T13:21:21;11.20;99.90
20200;DHT22;36284;37.236;-121.934;2023-05-01T13:23:59;11.10;99.90
20200;DHT22;36284;37.236;-121.934;2023-05-01T13:26:30;11.10;99.90
20200;DHT22;36284;37.236;-121.934;2023-05-01T13:28:59;11.20;99.90
20200;DHT22;36284;37.236;-121.934;2023-05-01T13:31:27;11.10;99.90
20200;DHT22;36284;37.236;-121.934;2023-05-01T13:33:57;11.10;99.90
20200;DHT22;36284;37.236;-121.934;2023-05-01T13:36:24;11.20;99.90
20200;DHT22;36284;37.236;-121.934;2023-05-01T13:38:55;11.10;99.90
20200;DHT22;36284;37.236;-121.934;2023-05-01T13:41:23;11.30;99.90
20200;DHT22;36284;37.236;-121.934;2023-05-01T13:43:54;11.20;99.90
20200;DHT22;36284;37.236;-121.934;2023-05-01T13:46:23;11.30;99.90
20200;DHT22;36284;37.236;-121.934;2023-05-01T13:48:50;11.30;99.90
20200;DHT22;36284;37.236;-121.934;2023-05-01T13:51:24;11.40;99.90
20200;DHT22;36284;37.236;-121.934;2023-05-01T13:53:51;11.40;99.90
20200;DHT22;36284;37.236;-121.934;2023-05-01T13:56:18;11.20;99.90
20200;DHT22;36284;37.236;-121.934;2023-05-01T13:58:46;11.20;99.90
20200;DHT22;36284;37.236;-121.934;2023-05-01T14:01:18;11.00;99.90
20200;DHT22;36284;37.236;-121.934;2023-05-01T14:03:46;10.90;99.90
20200;DHT22;36284;37.236;-121.934;2023-05-01T14:06:15;10.90;99.90
20200;DHT22;36284;37.236;-121.934;2023-05-01T14:08:42;11.00;99.90
20200;DHT22;36284;37.236;-121.934;2023-05-01T14:11:10;11.00;99.90
20200;DHT22;36284;37.236;-121.934;2023-05-01T14:13:43;11.00;99.90
20200;DHT22;36284;37.236;-121.934;2023-05-01T14:16:32;11.10;99.90
20200;DHT22;36284;37.236;-121.934;2023-05-01T14:18:58;11.00;99.90
20200;DHT22;36284;37.236;-121.934;2023-05-01T14:21:26;11.10;99.90
20200;DHT22;36284;37.236;-121.934;2023-05-01T14:23:54;11.20;99.90
20200;DHT22;36284;37.236;-121.934;2023-05-01T14:26:22;11.20;99.90
20200;DHT22;36284;37.236;-121.934;2023-05-01T14:28:51;11.40;99.90
20200;DHT22;36284;37.236;-121.934;2023-05-01T14:31:28;11.40;99.90
20200;DHT22;36284;37.236;-121.934;2023-05-01T14:34:00;11.30;99.90
20200;DHT22;36284;37.236;-121.934;2023-05-01T14:36:28;11.40;99.90
20200;DHT22;36284;37.236;-121.934;2023-05-01T14:39:00;11.40;99.90
20200;DHT22;36284;37.236;-121.934;2023-05-01T14:41:27;11.50;99.90
20200;DHT22;36284;37.236;-121.934;2023-05-01T14:43:56;11.40;99.90
20200;DHT22;36284;37.236;-121.934;2023-05-01T14:46:32;11.50;99.90
20200;DHT22;36284;37.236;-121.934;2023-05-01T14:49:00;11.70;99.90
20200;DHT22;36284;37.236;-121.934;2023-05-01T14:51:27;11.70;99.90
20200;DHT22;36284;37.236;-121.934;2023-05-01T14:53:58;11.70;99.90
20200;DHT22;36284;37.236;-121.934;2023-05-01T14:56:25;11.70;99.90
20200;DHT22;36284;37.236;-121.934;2023-05-01T14:58:52;11.70;99.90
20200;DHT22;36284;37.236;-121.934;2023-05-01T15:01:19;11.60;99.90
20200;DHT22;36284;37.236;-121.934;2023-05-01T15:03:47;11.60;99.90
20200;DHT22;36284;37.236;-121.934;2023-05-01T15:06:14;11.60;99.90
20200;DHT22;36284;37.236;-121.934;2023-05-01T15:08:41;11.60;99.90
20200;DHT22;36284;37.236;-121.934;2023-05-01T15:11:09;11.40;99.90
20200;DHT22;36284;37.236;-121.934;2023-05-01T15:13:38;11.30;99.90
20200;DHT22;36284;37.236;-121.934;2023-05-01T15:16:06;11.30;99.90
20200;DHT22;36284;37.236;-121.934;2023-05-01T15:18:33;11.40;99.90
20200;DHT22;36284;37.236;-121.934;2023-05-01T15:21:02;11.50;99.90
20200;DHT22;36284;37.236;-121.934;2023-05-01T15:23:29;11.70;99.90
20200;DHT22;36284;37.236;-121.934;2023-05-01T15:25:57;11.80;99.90
20200;DHT22;36284;37.236;-121.934;2023-05-01T15:28:24;11.70;99.90
20200;DHT22;36284;37.236;-121.934;2023-05-01T15:30:52;11.90;99.90
20200;DHT22;36284;37.236;-121.934;2023-05-01T15:33:19;12.00;99.90
20200;DHT22;36284;37.236;-121.934;2023-05-01T15:35:46;12.10;99.90
20200;DHT22;36284;37.236;-121.934;2023-05-01T15:38:16;12.10;99.90
20200;DHT22;36284;37.236;-121.934;2023-05-01T15:40:45;12.40;99.90
20200;DHT22;36284;37.236;-121.934;2023-05-01T15:45:39;13.80;99.90
20200;DHT22;36284;37.236;-121.934;2023-05-01T15:48:08;13.40;99.90
20200;DHT22;36284;37.236;-121.934;2023-05-01T15:50:36;13.00;99.90
20200;DHT22;36284;37.236;-121.934;2023-05-01T15:53:03;13.00;99.90
20200;DHT22;36284;37.236;-121.934;2023-05-01T15:55:30;13.20;99.90
20200;DHT22;36284;37.236;-121.934;2023-05-01T15:57:57;13.20;99.90
20200;DHT22;36284;37.236;-121.934;2023-05-01T16:00:24;13.10;99.90
20200;DHT22;36284;37.236;-121.934;2023-05-01T16:02:51;13.10;99.90
20200;DHT22;36284;37.236;-121.934;2023-05-01T16:05:19;13.10;99.90